sensor_id;sensor_type;location;lat;lon;timestamp;temperature;humidity
8248;DHT22;4164;49.844;8.830;2022-10-16T00:01:39;16.10;99.90
8248;DHT22;4164;49.844;8.830;2022-10-16T00:04:04;16.10;99.90
8248;DHT22;4164;49.844;8.830;2022-10-16T00:06:31;16.10;99.90
8248;DHT22;4164;49.844;8.830;2022-10-16T00:08:57;16.10;99.90
8248;DHT22;4164;49.844;8.830;2022-10-16T00:11:27;16.00;99.90
8248;DHT22;4164;49.844;8.830;2022-10-16T00:13:57;16.00;99.90
8248;DHT22;4164;49.844;8.830;2022-10-16T00:16:23;16.10;99.90
8248;DHT22;4164;49.844;8.830;2022-10-16T00:18:49;16.10;99.90
8248;DHT22;4164;49.844;8.830;2022-10-16T00:21:26;16.10;99.90
8248;DHT22;4164;49.844;8.830;2022-10-16T00:23:53;16.00;99.90
8248;DHT22;4164;49.844;8.830;2022-10-16T00:26:20;16.00;99.90
8248;DHT22;4164;49.844;8.830;2022-10-16T00:28:47;16.00;99.90
8248;DHT22;4164;49.844;8.830;2022-10-16T00:31:14;16.00;99.90
8248;DHT22;4164;49.844;8.830;2022-10-16T00:33:40;16.00;99.90
8248;DHT22;4164;49.844;8.830;2022-10-16T00:36:09;16.10;99.90
8248;DHT22;4164;49.844;8.830;2022-10-16T00:38:35;16.10;99.90
8248;DHT22;4164;49.844;8.830;2022-10-16T00:41:03;16.10;99.90
8248;DHT22;4164;49.844;8.830;2022-10-16T00:46:13;15.90;99.90
8248;DHT22;4164;49.844;8.830;2022-10-16T00:48:40;15.90;99.90
8248;DHT22;4164;49.844;8.830;2022-10-16T00:51:07;15.90;99.90
8248;DHT22;4164;49.844;8.830;2022-10-16T00:53:33;15.90;99.90
8248;DHT22;4164;49.844;8.830;2022-10-16T00:56:00;15.90;99.90
8248;DHT22;4164;49.844;8.830;2022-10-16T00:58:26;15.90;99.90
8248;DHT22;4164;49.844;8.830;2022-10-16T01:00:51;15.90;99.90
8248;DHT22;4164;49.844;8.830;2022-10-16T01:03:26;15.80;99.90
8248;DHT22;4164;49.844;8.830;2022-10-16T01:14:36;15.70;99.90
8248;DHT22;4164;49.844;8.830;2022-10-16T01:17:07;15.70;99.90
8248;DHT22;4164;49.844;8.830;2022-10-16T01:19:44;15.70;99.90
8248;DHT22;4164;49.844;8.830;2022-10-16T01:22:11;15.70;99.90
8248;DHT22;4164;49.844;8.830;2022-10-16T01:24:43;15.70;99.90
8248;DHT22;4164;49.844;8.830;2022-10-16T01:27:24;15.70;99.90
8248;DHT22;4164;49.844;8.830;2022-10-16T01:30:02;15.70;99.90
8248;DHT22;4164;49.844;8.830;2022-10-16T01:33:00;15.70;99.90
8248;DHT22;4164;49.844;8.830;2022-10-16T01:35:34;15.70;99.90
8248;DHT22;4164;49.844;8.830;2022-10-16T01:38:04;15.70;99.90
8248;DHT22;4164;49.844;8.830;2022-10-16T01:40:34;15.70;99.90
8248;DHT22;4164;49.844;8.830;2022-10-16T01:44:08;15.80;99.90
8248;DHT22;4164;49.844;8.830;2022-10-16T01:46:03;15.80;99.90
8248;DHT22;4164;49.844;8.830;2022-10-16T01:48:29;15.80;99.90
8248;DHT22;4164;49.844;8.830;2022-10-16T01:51:00;15.80;99.90
8248;DHT22;4164;49.844;8.830;2022-10-16T01:53:26;15.80;99.90
8248;DHT22;4164;49.844;8.830;2022-10-16T01:55:54;15.80;99.90
8248;DHT22;4164;49.844;8.830;2022-10-16T01:58:22;15.90;99.90
8248;DHT22;4164;49.844;8.830;2022-10-16T02:00:48;15.90;99.90
8248;DHT22;4164;49.844;8.830;2022-10-16T02:03:17;15.90;99.90
8248;DHT22;4164;49.844;8.830;2022-10-16T02:08:14;15.90;99.90
8248;DHT22;4164;49.844;8.830;2022-10-16T02:10:40;15.90;99.90
8248;DHT22;4164;49.844;8.830;2022-10-16T02:13:10;15.80;99.90
8248;DHT22;4164;49.844;8.830;2022-10-16T02:15:36;15.90;99.90
8248;DHT22;4164;49.844;8.830;2022-10-16T02:18:04;15.90;99.90
8248;DHT22;4164;49.844;8.830;2022-10-16T02:20:34;16.00;99.90
8248;DHT22;4164;49.844;8.830;2022-10-16T02:23:03;16.00;99.90
8248;DHT22;4164;49.844;8.830;2022-10-16T02:25:35;16.00;99.90
8248;DHT22;4164;49.844;8.830;2022-10-16T02:28:17;16.00;99.90
8248;DHT22;4164;49.844;8.830;2022-10-16T02:30:45;16.10;99.90
8248;DHT22;4164;49.844;8.830;2022-10-16T02:33:15;16.10;99.90
8248;DHT22;4164;49.844;8.830;2022-10-16T02:35:42;16.10;99.90
8248;DHT22;4164;49.844;8.830;2022-10-16T02:38:09;16.10;99.90
8248;DHT22;4164;49.844;8.830;2022-10-16T02:40:36;16.00;99.90
8248;DHT22;4164;49.844;8.830;2022-10-16T02:43:04;16.10;99.90
8248;DHT22;4164;49.844;8.830;2022-10-16T02:45:30;16.00;99.90
8248;DHT22;4164;49.844;8.830;2022-10-16T02:47:56;16.00;99.90
8248;DHT22;4164;49.844;8.830;2022-10-16T02:50:21;15.90;99.90
8248;DHT22;4164;49.844;8.830;2022-10-16T02:52:48;15.90;99.90
8248;DHT22;4164;49.844;8.830;2022-10-16T02:55:13;16.00;99.90
8248;DHT22;4164;49.844;8.830;2022-10-16T02:57:39;16.10;99.90
8248;DHT22;4164;49.844;8.830;2022-10-16T03:00:09;16.10;99.90
8248;DHT22;4164;49.844;8.830;2022-10-16T03:02:35;16.10;99.90
8248;DHT22;4164;49.844;8.830;2022-10-16T03:05:01;16.00;99.90
8248;DHT22;4164;49.844;8.830;2022-10-16T03:07:26;16.00;99.90
8248;DHT22;4164;49.844;8.830;2022-10-16T03:09:52;16.00;99.90
8248;DHT22;4164;49.844;8.830;2022-10-16T03:12:17;16.00;99.90
8248;DHT22;4164;49.844;8.830;2022-10-16T03:14:43;16.00;99.90
8248;DHT22;4164;49.844;8.830;2022-10-16T03:17:09;16.00;99.90
8248;DHT22;4164;49.844;8.830;2022-10-16T03:19:34;16.00;99.90
8248;DHT22;4164;49.844;8.830;2022-10-16T03:22:01;16.10;99.90
8248;DHT22;4164;49.844;8.830;2022-10-16T03:24:27;16.10;99.90
8248;DHT22;4164;49.844;8.830;2022-10-16T03:26:52;16.00;99.90
8248;DHT22;4164;49.844;8.830;2022-10-16T03:29:18;16.00;99.90
8248;DHT22;4164;49.844;8.830;2022-10-16T03:31:43;16.00;99.90
8248;DHT22;4164;49.844;8.830;2022-10-16T03:34:09;15.90;99.90
8248;DHT22;4164;49.844;8.830;2022-10-16T03:36:34;16.00;99.90
8248;DHT22;4164;49.844;8.830;2022-10-16T03:39:00;16.10;99.90
8248;DHT22;4164;49.844;8.830;2022-10-16T03:41:26;16.10;99.90
8248;DHT22;4164;49.844;8.830;2022-10-16T03:43:51;16.00;99.90
8248;DHT22;4164;49.844;8.830;2022-10-16T03:46:17;16.10;99.90
8248;DHT22;4164;49.844;8.830;2022-10-16T03:48:42;16.20;99.90
8248;DHT22;4164;49.844;8.830;2022-10-16T03:51:08;16.20;99.90
8248;DHT22;4164;49.844;8.830;2022-10-16T03:53:33;16.10;99.90
8248;DHT22;4164;49.844;8.830;2022-10-16T03:55:59;16.00;99.90
8248;DHT22;4164;49.844;8.830;2022-10-16T03:58:25;16.00;99.90
8248;DHT22;4164;49.844;8.830;2022-10-16T04:00:50;16.00;99.90
8248;DHT22;4164;49.844;8.830;2022-10-16T04:03:16;16.00;99.90
8248;DHT22;4164;49.844;8.830;2022-10-16T04:05:42;16.00;99.90
8248;DHT22;4164;49.844;8.830;2022-10-16T04:08:08;16.10;99.90
8248;DHT22;4164;49.844;8.830;2022-10-16T04:10:33;16.00;99.90
8248;DHT22;4164;49.844;8.830;2022-10-16T04:12:59;16.00;99.90
8248;DHT22;4164;49.844;8.830;2022-10-16T04:15:25;15.90;99.90
8248;DHT22;4164;49.844;8.830;2022-10-16T04:17:51;15.90;99.90
8248;DHT22;4164;49.844;8.830;2022-10-16T04:20:17;15.90;99.90
8248;DHT22;4164;49.844;8.830;2022-10-16T04:22:43;15.90;99.90
8248;DHT22;4164;49.844;8.830;2022-10-16T04:25:09;15.90;99.90
8248;DHT22;4164;49.844;8.830;2022-10-16T04:27:34;15.80;99.90
8248;DHT22;4164;49.844;8.830;2022-10-16T04:30:00;15.80;99.90
8248;DHT22;4164;49.844;8.830;2022-10-16T04:32:26;15.80;99.90
8248;DHT22;4164;49.844;8.830;2022-10-16T04:34:52;15.80;99.90
8248;DHT22;4164;49.844;8.830;2022-10-16T04:37:17;15.90;99.90
8248;DHT22;4164;49.844;8.830;2022-10-16T04:39:43;15.90;99.90
8248;DHT22;4164;49.844;8.830;2022-10-16T04:42:10;16.00;99.90
8248;DHT22;4164;49.844;8.830;2022-10-16T04:44:35;16.00;99.90
8248;DHT22;4164;49.844;8.830;2022-10-16T04:47:01;16.10;99.90
8248;DHT22;4164;49.844;8.830;2022-10-16T04:49:27;16.20;99.90
8248;DHT22;4164;49.844;8.830;2022-10-16T04:51:52;16.30;99.90
8248;DHT22;4164;49.844;8.830;2022-10-16T04:54:18;16.30;99.90
8248;DHT22;4164;49.844;8.830;2022-10-16T04:56:43;16.20;99.90
8248;DHT22;4164;49.844;8.830;2022-10-16T04:59:13;16.10;99.90
8248;DHT22;4164;49.844;8.830;2022-10-16T05:01:39;16.10;99.90
8248;DHT22;4164;49.844;8.830;2022-10-16T05:04:05;16.10;99.90
8248;DHT22;4164;49.844;8.830;2022-10-16T05:06:30;16.10;99.90
8248;DHT22;4164;49.844;8.830;2022-10-16T05:08:56;16.10;99.90
8248;DHT22;4164;49.844;8.830;2022-10-16T05:11:21;16.10;99.90
8248;DHT22;4164;49.844;8.830;2022-10-16T05:13:47;16.00;99.90
8248;DHT22;4164;49.844;8.830;2022-10-16T05:16:12;15.90;99.90
8248;DHT22;4164;49.844;8.830;2022-10-16T05:18:38;15.90;99.90
8248;DHT22;4164;49.844;8.830;2022-10-16T05:21:03;15.90;99.90
8248;DHT22;4164;49.844;8.830;2022-10-16T05:23:29;15.90;99.90
8248;DHT22;4164;49.844;8.830;2022-10-16T05:25:56;15.90;99.90
8248;DHT22;4164;49.844;8.830;2022-10-16T05:28:24;15.90;99.90
8248;DHT22;4164;49.844;8.830;2022-10-16T05:30:49;15.80;99.90
8248;DHT22;4164;49.844;8.830;2022-10-16T05:33:15;15.90;99.90
8248;DHT22;4164;49.844;8.830;2022-10-16T05:35:40;15.90;99.90
8248;DHT22;4164;49.844;8.830;2022-10-16T05:38:06;15.90;99.90
8248;DHT22;4164;49.844;8.830;2022-10-16T05:40:32;15.90;99.90
8248;DHT22;4164;49.844;8.830;2022-10-16T05:42:57;15.80;99.90
8248;DHT22;4164;49.844;8.830;2022-10-16T05:45:23;15.80;99.90
8248;DHT22;4164;49.844;8.830;2022-10-16T05:47:48;15.80;99.90
8248;DHT22;4164;49.844;8.830;2022-10-16T05:50:14;15.90;99.90
8248;DHT22;4164;49.844;8.830;2022-10-16T05:52:39;15.90;99.90
8248;DHT22;4164;49.844;8.830;2022-10-16T05:55:05;15.90;99.90
8248;DHT22;4164;49.844;8.830;2022-10-16T05:57:31;16.00;99.90
8248;DHT22;4164;49.844;8.830;2022-10-16T05:59:56;16.00;99.90
8248;DHT22;4164;49.844;8.830;2022-10-16T06:02:22;16.00;99.90
8248;DHT22;4164;49.844;8.830;2022-10-16T06:04:47;16.00;99.90
8248;DHT22;4164;49.844;8.830;2022-10-16T06:07:13;16.00;99.90
8248;DHT22;4164;49.844;8.830;2022-10-16T06:09:39;15.90;99.90
8248;DHT22;4164;49.844;8.830;2022-10-16T06:12:04;16.00;99.90
8248;DHT22;4164;49.844;8.830;2022-10-16T06:14:30;16.00;99.90
8248;DHT22;4164;49.844;8.830;2022-10-16T06:16:55;15.90;99.90
8248;DHT22;4164;49.844;8.830;2022-10-16T06:19:21;15.90;99.90
8248;DHT22;4164;49.844;8.830;2022-10-16T06:21:48;15.80;99.90
8248;DHT22;4164;49.844;8.830;2022-10-16T06:24:13;15.80;99.90
8248;DHT22;4164;49.844;8.830;2022-10-16T06:26:39;15.80;99.90
8248;DHT22;4164;49.844;8.830;2022-10-16T06:29:04;15.90;99.90
8248;DHT22;4164;49.844;8.830;2022-10-16T06:31:30;16.00;99.90
8248;DHT22;4164;49.844;8.830;2022-10-16T06:33:59;16.10;99.90
8248;DHT22;4164;49.844;8.830;2022-10-16T06:36:25;16.30;99.90
8248;DHT22;4164;49.844;8.830;2022-10-16T06:38:50;16.40;99.90
8248;DHT22;4164;49.844;8.830;2022-10-16T06:41:18;16.30;99.90
8248;DHT22;4164;49.844;8.830;2022-10-16T06:43:44;16.30;99.90
8248;DHT22;4164;49.844;8.830;2022-10-16T06:46:15;16.30;99.90
8248;DHT22;4164;49.844;8.830;2022-10-16T06:48:41;16.40;99.90
8248;DHT22;4164;49.844;8.830;2022-10-16T06:51:10;16.40;99.90
8248;DHT22;4164;49.844;8.830;2022-10-16T06:53:38;16.40;99.90
8248;DHT22;4164;49.844;8.830;2022-10-16T06:56:12;16.40;99.90
8248;DHT22;4164;49.844;8.830;2022-10-16T06:58:39;16.40;99.90
8248;DHT22;4164;49.844;8.830;2022-10-16T07:01:05;16.40;99.90
8248;DHT22;4164;49.844;8.830;2022-10-16T07:03:31;16.50;99.90
8248;DHT22;4164;49.844;8.830;2022-10-16T07:06:00;16.60;99.90
8248;DHT22;4164;49.844;8.830;2022-10-16T07:08:26;16.50;99.90
8248;DHT22;4164;49.844;8.830;2022-10-16T07:10:59;16.50;99.90
8248;DHT22;4164;49.844;8.830;2022-10-16T07:13:25;16.50;99.90
8248;DHT22;4164;49.844;8.830;2022-10-16T07:15:50;16.50;99.90
8248;DHT22;4164;49.844;8.830;2022-10-16T07:18:16;16.60;99.90
8248;DHT22;4164;49.844;8.830;2022-10-16T07:20:41;16.60;99.90
8248;DHT22;4164;49.844;8.830;2022-10-16T07:23:07;16.60;99.90
8248;DHT22;4164;49.844;8.830;2022-10-16T07:25:32;16.70;99.90
8248;DHT22;4164;49.844;8.830;2022-10-16T07:27:58;16.90;99.90
8248;DHT22;4164;49.844;8.830;2022-10-16T07:30:23;16.90;99.90
8248;DHT22;4164;49.844;8.830;2022-10-16T07:32:49;17.00;99.90
8248;DHT22;4164;49.844;8.830;2022-10-16T07:35:14;16.90;99.90
8248;DHT22;4164;49.844;8.830;2022-10-16T07:37:44;17.00;99.90
8248;DHT22;4164;49.844;8.830;2022-10-16T07:40:10;16.90;99.90
8248;DHT22;4164;49.844;8.830;2022-10-16T07:42:36;16.90;99.90
8248;DHT22;4164;49.844;8.830;2022-10-16T07:45:02;17.00;99.90
8248;DHT22;4164;49.844;8.830;2022-10-16T07:47:27;17.20;99.90
8248;DHT22;4164;49.844;8.830;2022-10-16T07:49:53;17.30;99.90
8248;DHT22;4164;49.844;8.830;2022-10-16T07:52:18;17.30;99.90
8248;DHT22;4164;49.844;8.830;2022-10-16T07:54:44;17.40;99.90
8248;DHT22;4164;49.844;8.830;2022-10-16T07:57:10;17.40;99.90
8248;DHT22;4164;49.844;8.830;2022-10-16T07:59:35;17.60;99.90
8248;DHT22;4164;49.844;8.830;2022-10-16T08:02:01;17.70;99.90
8248;DHT22;4164;49.844;8.830;2022-10-16T08:04:26;17.60;99.90
8248;DHT22;4164;49.844;8.830;2022-10-16T08:06:52;17.70;99.90
8248;DHT22;4164;49.844;8.830;2022-10-16T08:09:19;17.70;99.90
8248;DHT22;4164;49.844;8.830;2022-10-16T08:11:45;17.70;99.90
8248;DHT22;4164;49.844;8.830;2022-10-16T08:14:10;17.70;99.90
8248;DHT22;4164;49.844;8.830;2022-10-16T08:16:36;17.70;99.90
8248;DHT22;4164;49.844;8.830;2022-10-16T08:19:02;17.80;99.90
8248;DHT22;4164;49.844;8.830;2022-10-16T08:21:27;17.90;99.90
8248;DHT22;4164;49.844;8.830;2022-10-16T08:23:53;18.00;99.90
8248;DHT22;4164;49.844;8.830;2022-10-16T08:26:20;18.00;99.90
8248;DHT22;4164;49.844;8.830;2022-10-16T08:28:45;18.00;99.90
8248;DHT22;4164;49.844;8.830;2022-10-16T08:31:15;18.10;99.90
8248;DHT22;4164;49.844;8.830;2022-10-16T08:33:43;18.10;99.90
8248;DHT22;4164;49.844;8.830;2022-10-16T08:36:11;18.10;99.90
8248;DHT22;4164;49.844;8.830;2022-10-16T08:38:37;18.00;99.90
8248;DHT22;4164;49.844;8.830;2022-10-16T08:41:33;18.00;99.90
8248;DHT22;4164;49.844;8.830;2022-10-16T08:47:13;17.80;99.90
8248;DHT22;4164;49.844;8.830;2022-10-16T08:49:43;17.70;99.90
8248;DHT22;4164;49.844;8.830;2022-10-16T08:52:13;17.60;99.90
8248;DHT22;4164;49.844;8.830;2022-10-16T08:54:45;17.40;99.90
8248;DHT22;4164;49.844;8.830;2022-10-16T08:57:20;17.30;99.90
8248;DHT22;4164;49.844;8.830;2022-10-16T08:59:46;17.30;99.90
8248;DHT22;4164;49.844;8.830;2022-10-16T09:10:44;17.00;99.90
8248;DHT22;4164;49.844;8.830;2022-10-16T09:13:38;17.00;99.90
8248;DHT22;4164;49.844;8.830;2022-10-16T09:16:22;17.00;99.90
8248;DHT22;4164;49.844;8.830;2022-10-16T09:18:58;17.00;99.90
8248;DHT22;4164;49.844;8.830;2022-10-16T09:21:31;17.00;99.90
8248;DHT22;4164;49.844;8.830;2022-10-16T09:24:15;17.00;99.90
8248;DHT22;4164;49.844;8.830;2022-10-16T09:26:42;17.10;99.90
8248;DHT22;4164;49.844;8.830;2022-10-16T09:29:12;17.30;99.90
8248;DHT22;4164;49.844;8.830;2022-10-16T09:31:38;17.60;99.90
8248;DHT22;4164;49.844;8.830;2022-10-16T09:34:04;17.80;99.90
8248;DHT22;4164;49.844;8.830;2022-10-16T09:36:38;18.20;99.90
8248;DHT22;4164;49.844;8.830;2022-10-16T09:39:07;18.40;99.90
8248;DHT22;4164;49.844;8.830;2022-10-16T09:41:36;18.50;99.90
8248;DHT22;4164;49.844;8.830;2022-10-16T09:44:04;18.60;99.90
8248;DHT22;4164;49.844;8.830;2022-10-16T09:46:34;19.00;99.90
8248;DHT22;4164;49.844;8.830;2022-10-16T09:49:16;19.20;99.90
8248;DHT22;4164;49.844;8.830;2022-10-16T09:51:43;19.40;99.90
8248;DHT22;4164;49.844;8.830;2022-10-16T09:56:36;19.70;99.90
8248;DHT22;4164;49.844;8.830;2022-10-16T09:59:11;20.00;99.90
8248;DHT22;4164;49.844;8.830;2022-10-16T10:01:39;21.30;99.90
8248;DHT22;4164;49.844;8.830;2022-10-16T10:04:06;22.80;99.90
8248;DHT22;4164;49.844;8.830;2022-10-16T10:06:41;23.10;99.90
8248;DHT22;4164;49.844;8.830;2022-10-16T10:09:21;23.80;99.90
8248;DHT22;4164;49.844;8.830;2022-10-16T10:11:51;24.50;99.90
8248;DHT22;4164;49.844;8.830;2022-10-16T10:14:38;25.10;99.90
8248;DHT22;4164;49.844;8.830;2022-10-16T10:19:59;25.20;99.90
8248;DHT22;4164;49.844;8.830;2022-10-16T10:22:42;23.70;99.90
8248;DHT22;4164;49.844;8.830;2022-10-16T10:36:35;24.60;99.90
8248;DHT22;4164;49.844;8.830;2022-10-16T10:39:22;23.30;99.90
8248;DHT22;4164;49.844;8.830;2022-10-16T10:50:14;26.50;99.90
8248;DHT22;4164;49.844;8.830;2022-10-16T10:55:43;27.80;99.90
8248;DHT22;4164;49.844;8.830;2022-10-16T11:01:13;31.20;99.90
8248;DHT22;4164;49.844;8.830;2022-10-16T11:04:20;30.70;99.90
8248;DHT22;4164;49.844;8.830;2022-10-16T11:06:52;30.90;99.90
8248;DHT22;4164;49.844;8.830;2022-10-16T11:10:03;30.10;99.90
8248;DHT22;4164;49.844;8.830;2022-10-16T11:12:38;30.20;99.90
8248;DHT22;4164;49.844;8.830;2022-10-16T11:15:13;31.10;99.90
8248;DHT22;4164;49.844;8.830;2022-10-16T11:17:42;29.90;99.90
8248;DHT22;4164;49.844;8.830;2022-10-16T11:20:19;30.50;99.90
8248;DHT22;4164;49.844;8.830;2022-10-16T11:22:50;32.40;99.90
8248;DHT22;4164;49.844;8.830;2022-10-16T11:28:38;24.60;99.90
8248;DHT22;4164;49.844;8.830;2022-10-16T11:33:38;25.70;99.90
8248;DHT22;4164;49.844;8.830;2022-10-16T11:46:32;24.10;99.90
8248;DHT22;4164;49.844;8.830;2022-10-16T11:49:21;24.80;99.90
8248;DHT22;4164;49.844;8.830;2022-10-16T11:52:07;25.40;99.90
8248;DHT22;4164;49.844;8.830;2022-10-16T11:57:19;23.60;99.90
8248;DHT22;4164;49.844;8.830;2022-10-16T11:59:55;23.00;99.90
8248;DHT22;4164;49.844;8.830;2022-10-16T12:07:51;22.30;99.90
8248;DHT22;4164;49.844;8.830;2022-10-16T12:10:27;22.50;99.90
8248;DHT22;4164;49.844;8.830;2022-10-16T12:12:54;23.40;99.90
8248;DHT22;4164;49.844;8.830;2022-10-16T12:15:26;22.70;99.90
8248;DHT22;4164;49.844;8.830;2022-10-16T12:17:52;22.50;99.90
8248;DHT22;4164;49.844;8.830;2022-10-16T12:22:52;22.50;99.90
8248;DHT22;4164;49.844;8.830;2022-10-16T12:25:25;25.60;99.90
8248;DHT22;4164;49.844;8.830;2022-10-16T12:30:29;26.00;99.90
8248;DHT22;4164;49.844;8.830;2022-10-16T12:32:57;27.80;99.90
8248;DHT22;4164;49.844;8.830;2022-10-16T12:35:28;27.10;99.90
8248;DHT22;4164;49.844;8.830;2022-10-16T12:38:05;25.90;99.90
8248;DHT22;4164;49.844;8.830;2022-10-16T12:40:33;25.50;99.90
8248;DHT22;4164;49.844;8.830;2022-10-16T12:43:12;24.30;99.90
8248;DHT22;4164;49.844;8.830;2022-10-16T12:45:38;23.80;99.90
8248;DHT22;4164;49.844;8.830;2022-10-16T12:48:19;23.80;99.90
8248;DHT22;4164;49.844;8.830;2022-10-16T12:50:45;23.40;99.90
8248;DHT22;4164;49.844;8.830;2022-10-16T12:53:22;23.60;99.90
8248;DHT22;4164;49.844;8.830;2022-10-16T12:56:15;23.40;99.90
8248;DHT22;4164;49.844;8.830;2022-10-16T12:59:00;22.80;99.90
8248;DHT22;4164;49.844;8.830;2022-10-16T13:04:32;21.80;99.90
8248;DHT22;4164;49.844;8.830;2022-10-16T13:20:39;22.00;99.90
8248;DHT22;4164;49.844;8.830;2022-10-16T13:23:40;22.10;99.90
8248;DHT22;4164;49.844;8.830;2022-10-16T13:29:00;21.90;99.90
8248;DHT22;4164;49.844;8.830;2022-10-16T13:31:26;21.80;99.90
8248;DHT22;4164;49.844;8.830;2022-10-16T13:33:56;21.80;99.90
8248;DHT22;4164;49.844;8.830;2022-10-16T13:36:29;21.70;99.90
8248;DHT22;4164;49.844;8.830;2022-10-16T13:39:13;21.70;99.90
8248;DHT22;4164;49.844;8.830;2022-10-16T13:41:39;21.90;99.90
8248;DHT22;4164;49.844;8.830;2022-10-16T13:44:13;21.90;99.90
8248;DHT22;4164;49.844;8.830;2022-10-16T13:46:39;21.80;99.90
8248;DHT22;4164;49.844;8.830;2022-10-16T13:49:16;21.40;99.90
8248;DHT22;4164;49.844;8.830;2022-10-16T13:51:54;21.20;99.90
8248;DHT22;4164;49.844;8.830;2022-10-16T13:54:20;21.10;99.90
8248;DHT22;4164;49.844;8.830;2022-10-16T13:56:45;20.90;99.90
8248;DHT22;4164;49.844;8.830;2022-10-16T13:59:26;20.90;99.90
8248;DHT22;4164;49.844;8.830;2022-10-16T14:01:54;20.90;99.90
8248;DHT22;4164;49.844;8.830;2022-10-16T14:04:21;20.90;99.90
8248;DHT22;4164;49.844;8.830;2022-10-16T14:06:50;20.80;99.90
8248;DHT22;4164;49.844;8.830;2022-10-16T14:11:49;20.60;99.90
8248;DHT22;4164;49.844;8.830;2022-10-16T14:14:17;20.50;99.90
8248;DHT22;4164;49.844;8.830;2022-10-16T14:16:44;20.40;99.90
8248;DHT22;4164;49.844;8.830;2022-10-16T14:19:21;20.20;99.90
8248;DHT22;4164;49.844;8.830;2022-10-16T14:21:48;20.30;99.90
8248;DHT22;4164;49.844;8.830;2022-10-16T14:26:55;20.30;99.90
8248;DHT22;4164;49.844;8.830;2022-10-16T14:29:23;20.30;99.90
8248;DHT22;4164;49.844;8.830;2022-10-16T14:32:03;20.40;99.90
8248;DHT22;4164;49.844;8.830;2022-10-16T14:34:37;20.40;99.90
8248;DHT22;4164;49.844;8.830;2022-10-16T14:37:14;20.50;99.90
8248;DHT22;4164;49.844;8.830;2022-10-16T14:39:42;20.50;99.90
8248;DHT22;4164;49.844;8.830;2022-10-16T14:42:16;20.60;99.90
8248;DHT22;4164;49.844;8.830;2022-10-16T14:44:43;20.50;99.90
8248;DHT22;4164;49.844;8.830;2022-10-16T14:47:15;20.40;99.90
8248;DHT22;4164;49.844;8.830;2022-10-16T14:49:42;20.40;99.90
8248;DHT22;4164;49.844;8.830;2022-10-16T14:52:12;20.40;99.90
8248;DHT22;4164;49.844;8.830;2022-10-16T14:54:38;20.30;99.90
8248;DHT22;4164;49.844;8.830;2022-10-16T14:57:04;20.20;99.90
8248;DHT22;4164;49.844;8.830;2022-10-16T14:59:56;20.30;99.90
8248;DHT22;4164;49.844;8.830;2022-10-16T15:02:33;20.30;99.90
8248;DHT22;4164;49.844;8.830;2022-10-16T15:05:15;20.50;99.90
8248;DHT22;4164;49.844;8.830;2022-10-16T15:07:41;20.50;99.90
8248;DHT22;4164;49.844;8.830;2022-10-16T15:10:07;20.50;99.90
8248;DHT22;4164;49.844;8.830;2022-10-16T15:12:33;20.30;99.90
8248;DHT22;4164;49.844;8.830;2022-10-16T15:14:59;20.30;99.90
8248;DHT22;4164;49.844;8.830;2022-10-16T15:17:25;20.20;99.90
8248;DHT22;4164;49.844;8.830;2022-10-16T15:19:50;20.20;99.90
8248;DHT22;4164;49.844;8.830;2022-10-16T15:22:17;20.20;99.90
8248;DHT22;4164;49.844;8.830;2022-10-16T15:24:42;20.30;99.90
8248;DHT22;4164;49.844;8.830;2022-10-16T15:27:08;20.40;99.90
8248;DHT22;4164;49.844;8.830;2022-10-16T15:29:34;20.50;99.90
8248;DHT22;4164;49.844;8.830;2022-10-16T15:31:59;20.50;99.90
8248;DHT22;4164;49.844;8.830;2022-10-16T15:34:25;20.40;99.90
8248;DHT22;4164;49.844;8.830;2022-10-16T15:36:50;20.50;99.90
8248;DHT22;4164;49.844;8.830;2022-10-16T15:39:18;20.60;99.90
8248;DHT22;4164;49.844;8.830;2022-10-16T15:41:46;20.60;99.90
8248;DHT22;4164;49.844;8.830;2022-10-16T15:44:17;20.60;99.90
8248;DHT22;4164;49.844;8.830;2022-10-16T15:46:42;20.50;99.90
8248;DHT22;4164;49.844;8.830;2022-10-16T15:49:08;20.40;99.90
8248;DHT22;4164;49.844;8.830;2022-10-16T15:51:38;20.30;99.90
8248;DHT22;4164;49.844;8.830;2022-10-16T15:54:04;20.20;99.90
8248;DHT22;4164;49.844;8.830;2022-10-16T15:56:29;20.10;99.90
8248;DHT22;4164;49.844;8.830;2022-10-16T15:58:58;20.00;99.90
8248;DHT22;4164;49.844;8.830;2022-10-16T16:03:53;19.70;99.90
8248;DHT22;4164;49.844;8.830;2022-10-16T16:06:19;19.70;99.90
8248;DHT22;4164;49.844;8.830;2022-10-16T16:08:44;19.60;99.90
8248;DHT22;4164;49.844;8.830;2022-10-16T16:11:12;19.40;99.90
8248;DHT22;4164;49.844;8.830;2022-10-16T16:13:38;19.30;99.90
8248;DHT22;4164;49.844;8.830;2022-10-16T16:16:08;19.20;99.90
8248;DHT22;4164;49.844;8.830;2022-10-16T16:18:35;19.10;99.90
8248;DHT22;4164;49.844;8.830;2022-10-16T16:21:01;18.90;99.90
8248;DHT22;4164;49.844;8.830;2022-10-16T16:23:27;18.70;99.90
8248;DHT22;4164;49.844;8.830;2022-10-16T16:26:23;18.60;99.90
8248;DHT22;4164;49.844;8.830;2022-10-16T16:28:54;18.60;99.90
8248;DHT22;4164;49.844;8.830;2022-10-16T16:31:20;18.60;99.90
8248;DHT22;4164;49.844;8.830;2022-10-16T16:33:48;18.60;99.90
8248;DHT22;4164;49.844;8.830;2022-10-16T16:36:14;18.60;99.90
8248;DHT22;4164;49.844;8.830;2022-10-16T16:38:39;18.60;99.90
8248;DHT22;4164;49.844;8.830;2022-10-16T16:41:20;18.50;99.90
8248;DHT22;4164;49.844;8.830;2022-10-16T16:43:45;18.40;99.90
8248;DHT22;4164;49.844;8.830;2022-10-16T16:46:13;18.40;99.90
8248;DHT22;4164;49.844;8.830;2022-10-16T16:48:40;18.40;99.90
8248;DHT22;4164;49.844;8.830;2022-10-16T16:51:11;18.30;99.90
8248;DHT22;4164;49.844;8.830;2022-10-16T16:53:44;18.20;99.90
8248;DHT22;4164;49.844;8.830;2022-10-16T16:56:10;18.30;99.90
8248;DHT22;4164;49.844;8.830;2022-10-16T16:58:35;18.30;99.90
8248;DHT22;4164;49.844;8.830;2022-10-16T17:01:01;18.30;99.90
8248;DHT22;4164;49.844;8.830;2022-10-16T17:03:33;18.30;99.90
8248;DHT22;4164;49.844;8.830;2022-10-16T17:06:08;18.20;99.90
8248;DHT22;4164;49.844;8.830;2022-10-16T17:08:35;18.10;99.90
8248;DHT22;4164;49.844;8.830;2022-10-16T17:11:01;18.10;99.90
8248;DHT22;4164;49.844;8.830;2022-10-16T17:13:31;18.10;99.90
8248;DHT22;4164;49.844;8.830;2022-10-16T17:16:00;18.10;99.90
8248;DHT22;4164;49.844;8.830;2022-10-16T17:18:26;18.10;99.90
8248;DHT22;4164;49.844;8.830;2022-10-16T17:20:51;18.00;99.90
8248;DHT22;4164;49.844;8.830;2022-10-16T17:23:18;18.00;99.90
8248;DHT22;4164;49.844;8.830;2022-10-16T17:25:45;18.00;99.90
8248;DHT22;4164;49.844;8.830;2022-10-16T17:28:12;18.00;99.90
8248;DHT22;4164;49.844;8.830;2022-10-16T17:30:40;18.00;99.90
8248;DHT22;4164;49.844;8.830;2022-10-16T17:33:06;18.00;99.90
8248;DHT22;4164;49.844;8.830;2022-10-16T17:35:43;18.00;99.90
8248;DHT22;4164;49.844;8.830;2022-10-16T17:38:10;17.90;99.90
8248;DHT22;4164;49.844;8.830;2022-10-16T17:40:37;17.90;99.90
8248;DHT22;4164;49.844;8.830;2022-10-16T17:43:03;17.90;99.90
8248;DHT22;4164;49.844;8.830;2022-10-16T17:45:29;18.00;99.90
8248;DHT22;4164;49.844;8.830;2022-10-16T17:47:55;18.00;99.90
8248;DHT22;4164;49.844;8.830;2022-10-16T17:50:22;17.90;99.90
8248;DHT22;4164;49.844;8.830;2022-10-16T17:52:48;17.80;99.90
8248;DHT22;4164;49.844;8.830;2022-10-16T17:55:13;17.60;99.90
8248;DHT22;4164;49.844;8.830;2022-10-16T17:57:39;17.50;99.90
8248;DHT22;4164;49.844;8.830;2022-10-16T18:00:05;17.30;99.90
8248;DHT22;4164;49.844;8.830;2022-10-16T18:02:31;17.20;99.90
8248;DHT22;4164;49.844;8.830;2022-10-16T18:04:57;17.20;99.90
8248;DHT22;4164;49.844;8.830;2022-10-16T18:07:25;17.20;99.90